Flight Track Log - Related Links

Times and Time Zones

All times are in EDT time to prevent confusion due to time zone crossing. See the UAL1480 flight status page for this flight to view local times or setup timezone preferences in your user account.

Time Position Orientation Groundspeed Altitude Reporting Facility
EDT Latitude Longitude Course Direction KTS MPH feet Rate Location/Type
Fri 11:15:49 AM 40.7500 -74.1167 218° Southwest 222 255 2,600  Level New York TRACON
Fri 11:16:43 AM 40.7667 -74.1833 288° West 236 272 5,500 2,211 Climbing New York TRACON
Fri 11:17:00 AM 40.3583 -74.1791 159° South  Level FlightAware Approximate
Fri 11:17:43 AM 40.7167 -74.2167 207° Southwest 277 319 6,800  Level New York TRACON
Fri 11:18:00 AM 40.2434 -74.1689 194° South  Level FlightAware Approximate
Fri 11:18:43 AM 40.6333 -74.2500 197° South 279 321 10,400  Level New York TRACON
Fri 11:19:00 AM 40.1272 -74.2061 217° Southwest  Level FlightAware Approximate
Fri 11:19:49 AM 40.5500 -74.2667 189° South 332 382 11,900  Level New York TRACON
Fri 11:20:00 AM 40.0142 -74.2358 217° Southwest  Level FlightAware Approximate
Fri 11:21:00 AM 39.9133 -74.3201 218° Southwest  Level FlightAware Approximate
Fri 11:21:42 AM 40.3392 -74.2592 178° South 392 451 17,000  Level New York Center
Fri 11:23:40 AM 40.1269 -74.2647 181° South 429 494 21,200 2,078 Climbing Washington Center
Fri 11:24:41 AM 40.0383 -74.3503 216° Southwest 387 445 23,200 1,884 Climbing Washington Center
Fri 11:25:41 AM 39.9517 -74.4439 220° Southwest 394 453 25,000 1,714 Climbing Washington Center
Fri 11:26:40 AM 39.8631 -74.5344 218° Southwest 412 474 26,600 1,563 Climbing Washington Center
Fri 11:27:40 AM 39.7700 -74.6306 218° Southwest 423 487 28,100 1,388 Climbing Washington Center
Fri 11:28:41 AM 39.6750 -74.7289 219° Southwest 429 494 29,400 1,462 Climbing Washington Center
Fri 11:29:39 AM 39.5756 -74.8269 217° Southwest 443 510 31,000 1,576 Climbing Washington Center
Fri 11:30:39 AM 39.4656 -74.8981 207° Southwest 449 517 32,500 1,289 Climbing Washington Center
Fri 11:31:40 AM 39.3514 -74.9608 203° Southwest 449 517 33,600 744 Climbing Washington Center
Fri 11:32:40 AM 39.2328 -75.0261 203° Southwest 460 529 34,000 200 Climbing Washington Center
Fri 11:33:40 AM 39.1144 -75.0939 204° Southwest 460 529 34,000  Level Washington Center
Fri 11:34:38 AM 38.9958 -75.1564 202° Southwest 460 529 34,000 -50 Level Washington Center
Fri 11:35:40 AM 38.8814 -75.2183 203° Southwest 455 524 33,900 -49 Descending Washington Center
Fri 11:36:41 AM 38.7628 -75.2881 205° Southwest 455 524 33,900  Level Washington Center
Fri 11:37:42 AM 38.6461 -75.3472 202° Southwest 455 524 33,900 51 Level Washington Center
Fri 11:38:39 AM 38.5317 -75.4139 205° Southwest 455 524 34,000 51 Climbing Washington Center
Fri 11:39:39 AM 38.4150 -75.4806 204° Southwest 460 529 34,000 -50 Level Washington Center
Fri 11:40:40 AM 38.2858 -75.5494 203° Southwest 460 529 33,900  Descending Washington Center
Fri 11:41:40 AM 38.1689 -75.6156 204° Southwest 460 529 34,000  Climbing Washington Center
Fri 11:42:41 AM 38.0481 -75.6814 203° Southwest 460 529 33,900  Descending Washington Center
Fri 11:43:38 AM 37.9292 -75.7419 202° Southwest 460 529 34,000 51 Climbing Washington Center
Fri 11:44:39 AM 37.8100 -75.8019 202° Southwest 460 529 34,000  Level Washington Center
Fri 11:45:41 AM 37.6911 -75.8672 203° Southwest 460 529 34,000 -49 Level Washington Center
Fri 11:46:41 AM 37.5742 -75.9297 203° Southwest 455 524 33,900  Descending Washington Center
Fri 11:47:41 AM 37.4550 -75.9947 203° Southwest 455 524 34,000 51 Climbing Washington Center
Fri 11:48:39 AM 37.3297 -76.0489 199° South 461 531 34,000  Level Washington Center
Fri 11:49:40 AM 37.1942 -76.0456 179° South 477 549 34,000  Level Washington Center
Fri 11:50:41 AM 37.0564 -76.0422 179° South 487 560 34,000  Level Washington Center
Fri 11:51:41 AM 36.9522 -76.0417 180° South 487 560 34,000  Level Washington Center
Fri 11:52:41 AM 36.7914 -76.0586 185° South 503 579 34,000 508 Level Washington Center
Fri 11:53:39 AM 36.6681 -76.1228 203° Southwest 493 567 35,000 1,119 Climbing Washington Center
Fri 11:54:39 AM 36.5508 -76.2022 209° Southwest 480 552 36,200 1,289 Climbing Washington Center
Fri 11:55:40 AM 36.4336 -76.2761 207° Southwest 480 552 37,600 885 Climbing Washington Center
Fri 11:56:41 AM 36.3183 -76.3500 207° Southwest 474 545 38,000 202 Climbing Washington Center
Fri 11:57:39 AM 36.2053 -76.4208 207° Southwest 468 539 38,000  Level Washington Center
Fri 11:58:39 AM 36.0881 -76.4967 208° Southwest 468 539 38,000  Level Washington Center
Fri 11:59:39 AM 35.9706 -76.5700 207° Southwest 468 539 38,000 -50 Level Washington Center
Fri 12:00:40 PM 35.8550 -76.6453 208° Southwest 468 539 37,900  Descending Washington Center
Fri 12:01:40 PM 35.7397 -76.7181 207° Southwest 468 539 38,000 50 Climbing Washington Center
Fri 12:02:41 PM 35.6136 -76.8031 209° Southwest 468 539 38,000  Level Washington Center
Fri 12:03:39 PM 35.5108 -76.8653 206° Southwest 468 539 38,000  Level Washington Center
Fri 12:04:39 PM 35.3931 -76.9400 207° Southwest 468 539 38,000  Level Washington Center
Fri 12:05:41 PM 35.2756 -77.0117 206° Southwest 468 539 38,000  Level Washington Center
Fri 12:06:39 PM 35.1597 -77.0858 208° Southwest 468 539 38,000  Level Washington Center
Fri 12:07:40 PM 35.0419 -77.1572 206° Southwest 468 539 38,000  Level Washington Center
Fri 12:08:40 PM 34.9283 -77.2286 207° Southwest 468 539 38,000  Level Washington Center
Fri 12:09:41 PM 34.8019 -77.3144 209° Southwest 468 539 38,000  Level Washington Center
Fri 12:10:41 PM 34.6842 -77.3828 206° Southwest 468 539 38,000  Level Washington Center
Fri 12:11:40 PM 34.5564 -77.4153 192° South 468 539 38,000  Level Washington Center
Fri 12:13:16 PM 34.3472 -77.4556 189° South 476 548 38,000  Level Jacksonville Center
Fri 12:14:16 PM 34.2169 -77.4814 189° South 476 548 38,000  Level Jacksonville Center
Fri 12:15:15 PM 34.0967 -77.5014 188° South 490 564 38,000  Level Jacksonville Center
Fri 12:16:16 PM 33.9706 -77.5242 189° South 483 556 38,000  Level Jacksonville Center
Fri 12:17:16 PM 33.8422 -77.5519 190° South 478 550 38,000  Level Jacksonville Center
Fri 12:18:15 PM 33.7119 -77.5772 189° South 478 550 38,000  Level Jacksonville Center
Fri 12:19:16 PM 33.5836 -77.6025 189° South 478 550 38,000  Level Jacksonville Center
Fri 12:20:16 PM 33.4553 -77.6250 188° South 478 550 38,000  Level Jacksonville Center
Fri 12:21:16 PM 33.3269 -77.6500 189° South 478 550 38,000  Level Jacksonville Center
Fri 12:22:16 PM 33.1986 -77.6750 189° South 478 550 38,000  Level Jacksonville Center
Fri 12:23:16 PM 33.0661 -77.7025 190° South 483 556 38,000  Level Jacksonville Center
Fri 12:24:16 PM 32.9375 -77.7225 187° South 483 556 38,000 -50 Level Jacksonville Center
Fri 12:25:16 PM 32.8050 -77.7497 190° South 483 556 37,900  Descending Jacksonville Center
Fri 12:26:16 PM 32.6747 -77.7744 189° South 483 556 38,000 50 Climbing Jacksonville Center
Fri 12:27:16 PM 32.5419 -77.7942 187° South 483 556 38,000  Level Jacksonville Center
Fri 12:28:16 PM 32.4133 -77.8186 189° South 483 556 38,000  Level Jacksonville Center
Fri 12:29:16 PM 32.2831 -77.8431 189° South 478 550 38,000 -50 Level Jacksonville Center
Fri 12:30:16 PM 32.1517 -77.8481 182° South 478 550 37,900 -50 Descending Jacksonville Center
Fri 12:31:16 PM 32.0197 -77.8381 176° South 478 550 37,900 50 Level Jacksonville Center
Fri 12:32:16 PM 31.8878 -77.8233 175° South 478 550 38,000 50 Climbing Jacksonville Center
Fri 12:33:16 PM 31.7558 -77.8183 178° South 478 550 38,000 -50 Level Jacksonville Center
Fri 12:34:16 PM 31.6242 -77.8133 178° South 478 550 37,900 -50 Descending Jacksonville Center
Fri 12:35:16 PM 31.4925 -77.8083 178° South 478 550 37,900 50 Level Jacksonville Center
Fri 12:36:16 PM 31.3628 -77.8008 177° South 478 550 38,000 50 Climbing Jacksonville Center
Fri 12:37:16 PM 31.2311 -77.7958 178° South 478 550 38,000  Level Jacksonville Center
Fri 12:38:16 PM 31.0972 -77.7836 176° South 478 550 38,000  Level Jacksonville Center
Fri 12:39:16 PM 30.9672 -77.7736 176° South 478 550 38,000  Level Jacksonville Center
Fri 12:40:16 PM 30.8333 -77.7664 177° South 478 550 38,000 -34 Level Jacksonville Center
Fri 12:42:10 PM 30.5903 -77.7639 179° South 441 507 37,900  Descending Miami Center
Fri 12:43:10 PM 30.4547 -77.7556 177° South 483 556 38,000 50 Climbing Miami Center
Fri 12:44:10 PM 30.3172 -77.7497 178° South 479 551 38,000  Level Miami Center
Fri 12:45:10 PM 30.1797 -77.7436 178° South 486 559 38,000  Level Miami Center
Fri 12:46:10 PM 30.0442 -77.7356 177° South 479 551 38,000  Level Miami Center
Fri 12:47:10 PM 29.9128 -77.7294 178° South 471 542 38,000  Level Miami Center
Fri 12:48:10 PM 29.7836 -77.7239 178° South 471 542 38,000  Level Miami Center
Fri 12:49:10 PM 29.6522 -77.7156 177° South 479 551 38,000  Level Miami Center
Fri 12:50:10 PM 29.5167 -77.7050 176° South 476 548 38,000  Level Miami Center
Fri 12:51:10 PM 29.3833 -77.6992 178° South 477 549 38,000  Level Miami Center
Fri 12:52:10 PM 29.2456 -77.6886 176° South 478 550 38,000  Level Miami Center
Fri 12:53:10 PM 29.1122 -77.6806 177° South 484 557 38,000  Level Miami Center
Fri 12:54:10 PM 28.9869 -77.6747 178° South 470 541 38,000  Level Miami Center
Fri 12:55:10 PM 28.8536 -77.6692 178° South 483 556 38,000  Level Miami Center
Fri 12:56:10 PM 28.7158 -77.6611 177° South 483 556 38,000  Level Miami Center
Fri 12:57:10 PM 28.5844 -77.6506 176° South 477 549 38,000  Level Miami Center
Fri 12:58:10 PM 28.4550 -77.6428 177° South 483 556 38,000 -50 Level Miami Center
Fri 12:59:10 PM 28.3214 -77.6347 177° South 472 543 37,900 -250 Descending Miami Center
Fri 01:00:10 PM 28.1900 -77.6292 178° South 472 543 37,500 -650 Descending Miami Center
Fri 01:01:10 PM 28.0606 -77.6211 177° South 478 550 36,600 -950 Descending Miami Center
Fri 01:02:10 PM 27.9247 -77.6156 178° South 478 550 35,600 -950 Descending Miami Center
Fri 01:03:10 PM 27.7933 -77.6075 177° South 478 550 34,700 -850 Descending Miami Center
Fri 01:04:10 PM 27.6639 -77.5997 177° South 470 541 33,900 -350 Descending Miami Center
Fri 01:05:10 PM 27.5283 -77.5919 177° South 483 556 34,000 50 Climbing Miami Center
Fri 01:06:10 PM 27.3967 -77.5817 176° South 478 550 34,000 -350 Level Miami Center
Fri 01:07:10 PM 27.2650 -77.5947 185° South 478 550 33,300 -850 Descending Miami Center
Fri 01:08:10 PM 27.1336 -77.5731 172° South 478 550 32,300 -1,000 Descending Miami Center
Fri 01:09:10 PM 27.0042 -77.5628 176° South 478 550 31,300 -950 Descending Miami Center
Fri 01:10:10 PM 26.8725 -77.5575 178° South 478 550 30,400 -950 Descending Miami Center
Fri 01:11:10 PM 26.7431 -77.5472 176° South 478 550 29,400 -1,050 Descending Miami Center
Fri 01:12:10 PM 26.6178 -77.5397 177° South 473 544 28,300 -1,050 Descending Miami Center
Fri 01:13:10 PM 26.4903 -77.5297 176° South 468 539 27,300 -1,550 Descending Miami Center
Fri 01:14:10 PM 26.3692 -77.5289 180° South 449 517 25,200 -2,050 Descending Miami Center
Fri 01:15:10 PM 26.2542 -77.5214 177° South 437 503 23,200 -2,200 Descending Miami Center
Fri 01:16:10 PM 26.1414 -77.5139 177° South 418 481 20,800 -2,250 Descending Miami Center
Fri 01:17:10 PM 26.0308 -77.5064 177° South 405 466 18,700 -1,450 Descending Miami Center
Fri 01:18:10 PM 25.9283 -77.5033 178° South 386 444 17,900 -950 Descending Miami Center
Fri 01:19:10 PM 25.8364 -77.4983 177° South 344 396 16,800 -1,400 Descending Miami Center
Fri 01:20:10 PM 25.7467 -77.4908 176° South 333 383 15,100 -1,650 Descending Miami Center
Fri 01:21:10 PM 25.6608 -77.4997 185° South 320 368 13,500 -1,700 Descending Miami Center
Fri 01:22:10 PM 25.6167 -77.5778 238° Southwest 275 316 11,700 -1,800 Descending Miami Center
Fri 01:23:10 PM 25.5619 -77.6375 225° Southwest 275 316 9,900 -1,750 Descending Miami Center
Fri 01:24:10 PM 25.4950 -77.6875 214° Southwest 285 328 8,200 -1,700 Descending Miami Center

Login

Don't have an account? Register now (free) for customized features, flight alerts, and more!